Terminal Aerodrome Forecast
Issued by NWS

Current Version | Previous Version | Text Only | Print | Product List | Glossary On
Versions: 1 2 3 4 5 6 7 8 9 10 11 12 13 14 15 16 17 18 19
000
FTUS43 KFGF 271700
TAFDVL
TAF
KDVL 271725Z 2718/2818 16012KT P6SM SCT250
     FM280300 16007KT 3SM BR OVC002
     FM280600 13005KT 1SM BR OVC002
      AMD LTD TO CLD VIS AND WIND=

USA.gov is the U.S. government's official web portal to all federal, state and local government web resources and services.